createdAt,value
2023-03-19T00:01:36.450Z,101313.59
2023-03-19T00:04:39.217Z,101294.09
2023-03-19T00:07:43.341Z,101303.88
2023-03-19T00:10:46.525Z,101295.97
2023-03-19T00:13:49.360Z,101300.41
2023-03-19T00:20:20.416Z,101307.59
2023-03-19T00:23:24.554Z,101305.84
2023-03-19T00:26:27.646Z,101300.59
2023-03-19T00:29:31.063Z,101299.72
2023-03-19T00:32:34.106Z,101291.72
2023-03-19T00:35:37.146Z,101294.47
2023-03-19T00:38:41.285Z,101299.78
2023-03-19T00:41:50.318Z,101294.53
2023-03-19T00:44:53.165Z,101297.19
2023-03-19T00:47:56.328Z,101293.72
2023-03-19T00:51:04.317Z,101303.50
2023-03-19T00:54:08.518Z,101309.75
2023-03-19T00:57:11.760Z,101304.50
2023-03-19T01:00:18.521Z,101310.75
2023-03-19T01:03:21.357Z,101309.94
2023-03-19T01:06:24.159Z,101309.09
2023-03-19T01:09:28.446Z,101310.00
2023-03-19T01:12:31.472Z,101309.94
2023-03-19T01:15:36.890Z,101302.91
2023-03-19T01:18:39.783Z,101307.28
2023-03-19T01:21:46.159Z,101305.56
2023-03-19T01:24:53.125Z,101308.22
2023-03-19T01:27:56.387Z,101315.34
2023-03-19T01:31:01.036Z,101310.97
2023-03-19T01:34:10.020Z,101309.22
2023-03-19T01:37:30.098Z,101313.66
2023-03-19T01:40:34.573Z,101315.47
2023-03-19T01:43:37.841Z,101323.47
2023-03-19T01:46:47.862Z,101315.47
2023-03-19T01:50:22.138Z,101321.66
2023-03-19T01:53:31.826Z,101326.97
2023-03-19T01:56:47.788Z,101332.25
2023-03-19T02:00:02.659Z,101333.19
2023-03-19T02:03:19.145Z,101333.25
2023-03-19T02:06:37.708Z,101325.25
2023-03-19T02:09:41.955Z,101319.97
2023-03-19T02:12:46.543Z,101323.50
2023-03-19T02:15:49.909Z,101313.81
2023-03-19T02:18:53.808Z,101312.06
2023-03-19T02:21:57.643Z,101316.47
2023-03-19T02:25:07.635Z,101314.72
2023-03-19T02:28:17.203Z,101308.47
2023-03-19T02:31:20.982Z,101311.16
2023-03-19T02:34:41.465Z,101313.81
2023-03-19T02:37:44.904Z,101312.94
2023-03-19T02:40:52.992Z,101313.81
2023-03-19T02:44:00.905Z,101318.25
2023-03-19T02:47:04.327Z,101325.38
2023-03-19T02:50:08.909Z,101321.00
2023-03-19T02:53:11.823Z,101323.66
2023-03-19T02:56:14.619Z,101320.19
2023-03-19T02:59:18.981Z,101315.69
2023-03-19T03:02:21.814Z,101316.56
2023-03-19T03:05:25.012Z,101313.91
2023-03-19T03:08:28.520Z,101318.31
2023-03-19T03:11:31.481Z,101325.44
2023-03-19T03:14:36.151Z,101320.13
2023-03-19T03:17:39.582Z,101319.25
2023-03-19T03:20:42.321Z,101319.25
2023-03-19T03:23:45.060Z,101315.78
2023-03-19T03:26:47.886Z,101313.97
2023-03-19T03:29:52.821Z,101313.09
2023-03-19T03:32:55.764Z,101319.38
2023-03-19T03:35:58.704Z,101321.09
2023-03-19T03:39:02.056Z,101308.72
2023-03-19T03:42:05.091Z,101298.09
2023-03-19T03:45:12.189Z,101311.31
2023-03-19T03:48:17.333Z,101310.44
2023-03-19T03:51:22.153Z,101307.78
2023-03-19T03:54:24.910Z,101313.03
2023-03-19T03:57:28.225Z,101305.94
2023-03-19T04:00:33.915Z,101305.84
2023-03-19T04:03:36.934Z,101301.41
2023-03-19T04:06:39.854Z,101304.88
2023-03-19T04:09:55.288Z,101311.94
2023-03-19T04:12:58.742Z,101314.53
2023-03-19T04:16:06.265Z,101310.00
2023-03-19T04:19:09.236Z,101309.94
2023-03-19T04:22:12.108Z,101317.00
2023-03-19T04:25:15.393Z,101323.22
2023-03-19T04:28:18.389Z,101385.28
2023-03-19T04:31:22.685Z,101355.97
2023-03-19T04:34:26.096Z,101354.16
2023-03-19T04:37:28.937Z,101366.56
2023-03-19T04:40:31.861Z,101348.78
2023-03-19T04:43:35.039Z,101358.50
2023-03-19T04:46:41.899Z,101363.84
2023-03-19T04:49:44.769Z,101367.38
2023-03-19T04:52:48.139Z,101370.91
2023-03-19T04:55:52.128Z,101377.13
2023-03-19T04:58:56.794Z,101381.50
2023-03-19T05:02:01.178Z,101384.22
2023-03-19T05:05:04.762Z,101385.94
2023-03-19T05:08:08.664Z,101382.44
2023-03-19T05:11:12.099Z,101393.09
2023-03-19T05:14:31.393Z,101394.81
2023-03-19T05:17:47.564Z,101390.38
2023-03-19T05:21:06.208Z,101390.44
2023-03-19T05:24:09.788Z,101387.78
2023-03-19T05:27:13.845Z,101388.69
2023-03-19T05:30:27.171Z,101382.44
2023-03-19T05:33:44.715Z,101386.91
2023-03-19T05:36:48.136Z,101382.44
2023-03-19T05:39:54.264Z,101392.22
2023-03-19T05:42:57.153Z,101395.75
2023-03-19T05:46:03.247Z,101408.13
2023-03-19T05:49:10.506Z,101409.00
2023-03-19T05:52:13.504Z,101411.69
2023-03-19T05:55:17.385Z,101417.88
2023-03-19T05:58:23.268Z,101415.25
2023-03-19T06:01:26.431Z,101422.31
2023-03-19T06:04:31.197Z,101431.19
2023-03-19T06:07:34.074Z,101444.50
2023-03-19T06:10:38.366Z,101436.44
2023-03-19T06:13:46.243Z,101452.38
2023-03-19T06:16:52.292Z,101457.75
2023-03-19T06:19:56.512Z,101465.75
2023-03-19T06:23:00.386Z,101468.41
2023-03-19T06:26:04.579Z,101461.31
2023-03-19T06:29:11.652Z,101459.56
2023-03-19T06:32:16.567Z,101465.81
2023-03-19T06:35:20.988Z,101460.53
2023-03-19T06:38:25.553Z,101457.03
2023-03-19T06:41:28.423Z,101451.69
2023-03-19T06:44:39.390Z,101456.16
2023-03-19T06:47:43.233Z,101444.63
2023-03-19T06:50:48.216Z,101410.94
2023-03-19T06:53:51.038Z,101397.66
2023-03-19T06:56:53.944Z,101381.66
2023-03-19T06:59:56.756Z,101353.31
2023-03-19T07:02:59.913Z,101337.38
2023-03-19T07:06:04.230Z,101391.59
2023-03-19T07:09:07.138Z,101398.63
2023-03-19T07:12:10.469Z,101382.66
2023-03-19T07:15:13.557Z,101385.31
2023-03-19T07:18:16.321Z,101395.94
2023-03-19T07:21:20.768Z,101394.13
2023-03-19T07:24:23.560Z,101404.72
2023-03-19T07:27:26.302Z,101416.25
2023-03-19T07:30:29.185Z,101422.44
2023-03-19T07:33:31.983Z,101427.72
2023-03-19T07:36:36.182Z,101432.97
2023-03-19T07:39:39.183Z,101425.88
2023-03-19T07:42:44.629Z,101445.34
2023-03-19T07:45:48.689Z,101468.41
2023-03-19T07:48:51.565Z,101470.22
2023-03-19T07:51:55.661Z,101463.97
2023-03-19T07:54:58.497Z,101458.63
2023-03-19T07:58:01.303Z,101472.81
2023-03-19T08:01:04.101Z,101480.78
2023-03-19T08:04:07.068Z,101479.94
2023-03-19T08:07:12.807Z,101490.59
2023-03-19T08:10:15.853Z,101506.59
2023-03-19T08:13:18.656Z,101508.38
2023-03-19T08:16:21.696Z,101527.03
2023-03-19T08:19:24.547Z,101543.00
2023-03-19T08:22:28.661Z,101527.91
2023-03-19T08:25:32.613Z,101527.03
2023-03-19T08:28:35.536Z,101520.81
2023-03-19T08:31:38.335Z,101509.25
2023-03-19T08:34:41.118Z,101481.66
2023-03-19T08:37:45.366Z,101464.88
2023-03-19T08:40:49.088Z,101446.22
2023-03-19T08:43:51.881Z,101437.38
2023-03-19T08:46:55.953Z,101417.88
2023-03-19T08:49:58.713Z,101408.13
2023-03-19T08:53:02.832Z,101399.22
2023-03-19T08:56:08.111Z,101369.94
2023-03-19T08:59:11.040Z,101387.63
2023-03-19T09:02:14.077Z,101386.75
2023-03-19T09:05:17.158Z,101400.88
2023-03-19T09:08:21.288Z,101423.06
2023-03-19T09:11:24.381Z,101433.72
2023-03-19T09:14:27.253Z,101432.00
2023-03-19T09:17:29.996Z,101448.81
2023-03-19T09:20:32.785Z,101472.88
2023-03-19T09:23:37.010Z,101479.34
2023-03-19T09:26:39.763Z,101490.41
2023-03-19T09:29:42.612Z,101485.41
2023-03-19T09:32:45.511Z,101491.81
2023-03-19T09:35:51.782Z,101493.69
2023-03-19T09:38:56.214Z,101500.75
2023-03-19T09:42:09.850Z,101521.09
2023-03-19T09:45:16.054Z,101521.81
2023-03-19T09:48:28.846Z,101518.09
2023-03-19T09:51:41.089Z,101526.72
2023-03-19T09:54:48.418Z,101525.66
2023-03-19T09:57:53.309Z,101521.06
2023-03-19T10:00:57.462Z,101526.28
2023-03-19T10:04:37.612Z,101516.38
2023-03-19T10:07:56.972Z,101511.91
2023-03-19T10:11:18.153Z,101504.75
2023-03-19T10:14:38.391Z,101496.69
2023-03-19T10:17:44.099Z,101488.63
2023-03-19T10:20:53.199Z,101483.28
2023-03-19T10:24:00.523Z,101494.75
2023-03-19T10:27:11.861Z,101484.91
2023-03-19T10:30:17.399Z,101473.34
2023-03-19T10:33:24.567Z,101471.53
2023-03-19T10:36:31.565Z,101450.16
2023-03-19T10:39:37.067Z,101452.81
2023-03-19T10:42:54.080Z,101433.25
2023-03-19T10:45:58.642Z,101427.97
2023-03-19T10:49:01.448Z,101419.97
2023-03-19T10:52:05.612Z,101421.75
2023-03-19T10:55:15.803Z,101414.66
2023-03-19T10:58:22.164Z,101403.97
2023-03-19T11:01:29.850Z,101404.84
2023-03-19T11:04:32.790Z,101404.06
2023-03-19T11:07:37.988Z,101399.59
2023-03-19T11:10:48.095Z,101400.44
2023-03-19T11:13:52.299Z,101390.72
2023-03-19T11:17:02.808Z,101389.84
2023-03-19T11:20:23.607Z,101391.59
2023-03-19T11:23:29.493Z,101380.94
2023-03-19T11:26:32.544Z,101378.31
2023-03-19T11:29:40.622Z,101380.06
2023-03-19T11:33:04.859Z,101382.75
2023-03-19T11:36:14.138Z,101377.41
2023-03-19T11:39:27.329Z,101380.06
2023-03-19T11:42:47.900Z,101375.63
2023-03-19T11:46:05.142Z,101374.75
2023-03-19T11:49:22.786Z,101374.75
2023-03-19T11:52:34.726Z,101371.22
2023-03-19T11:55:43.381Z,101372.09
2023-03-19T11:59:04.886Z,101378.28
2023-03-19T12:02:33.783Z,101387.13
2023-03-19T12:05:47.326Z,101383.53
2023-03-19T12:08:57.513Z,101384.41
2023-03-19T12:12:14.078Z,101383.53
2023-03-19T12:15:25.737Z,101385.28
2023-03-19T12:18:52.312Z,101395.97
2023-03-19T12:22:07.614Z,101395.09
2023-03-19T12:25:29.855Z,101386.22
2023-03-19T12:28:35.860Z,101390.63
2023-03-19T12:31:48.808Z,101390.63
2023-03-19T12:34:57.757Z,101401.28
2023-03-19T12:38:04.738Z,101409.22
2023-03-19T12:41:11.003Z,101403.00
2023-03-19T12:44:20.775Z,101404.75
2023-03-19T12:47:27.726Z,101411.81
2023-03-19T12:50:35.364Z,101402.94
2023-03-19T12:53:48.432Z,101411.81
2023-03-19T12:56:58.766Z,101405.59
2023-03-19T13:00:06.853Z,101407.41
2023-03-19T13:03:18.571Z,101410.09
2023-03-19T13:06:28.211Z,101407.41
2023-03-19T13:09:37.898Z,101410.94
2023-03-19T13:12:41.430Z,101405.66
2023-03-19T13:15:48.794Z,101416.25
2023-03-19T13:19:00.047Z,101404.75
2023-03-19T13:22:10.551Z,101413.53
2023-03-19T13:25:17.714Z,101405.56
2023-03-19T13:28:28.072Z,101413.53
2023-03-19T13:31:36.769Z,101414.47
2023-03-19T13:34:39.875Z,101406.47
2023-03-19T13:37:45.179Z,101406.47
2023-03-19T13:40:49.995Z,101401.13
2023-03-19T13:43:56.442Z,101410.09
2023-03-19T13:47:02.553Z,101408.25
2023-03-19T13:50:23.501Z,101401.13
2023-03-19T13:53:42.604Z,101395.81
2023-03-19T13:57:27.790Z,101396.69
2023-03-19T14:00:59.492Z,101397.56
2023-03-19T14:04:04.932Z,101392.22
2023-03-19T14:07:14.150Z,101394.03
2023-03-19T14:13:35.301Z,101383.44
2023-03-19T14:16:42.702Z,101383.44
2023-03-19T14:19:45.684Z,101376.34
2023-03-19T14:22:58.280Z,101378.94
2023-03-19T14:26:07.445Z,101381.69
2023-03-19T14:29:15.333Z,101378.09
2023-03-19T14:32:22.430Z,101371.91
2023-03-19T14:35:26.915Z,101373.63
2023-03-19T14:38:37.848Z,101367.44
2023-03-19T14:41:45.899Z,101360.28
2023-03-19T14:45:21.081Z,101371.91
2023-03-19T14:49:09.287Z,101372.81
2023-03-19T14:52:15.497Z,101369.22
2023-03-19T14:55:18.681Z,101373.69
2023-03-19T14:58:23.581Z,101365.69
2023-03-19T15:01:27.905Z,101364.78
2023-03-19T15:04:30.861Z,101368.34
2023-03-19T15:07:38.578Z,101368.28
2023-03-19T15:10:50.192Z,101370.03
2023-03-19T15:14:08.891Z,101371.75
2023-03-19T15:17:20.228Z,101370.91
2023-03-19T15:20:24.413Z,101369.16
2023-03-19T15:23:29.634Z,101372.72
2023-03-19T15:26:34.880Z,101373.63
2023-03-19T15:29:39.060Z,101369.16
2023-03-19T15:33:04.392Z,101366.50
2023-03-19T15:36:13.411Z,101368.28
2023-03-19T15:39:20.095Z,101356.78
2023-03-19T15:42:25.819Z,101362.97
2023-03-19T15:45:33.539Z,101363.84
2023-03-19T15:48:43.095Z,101368.25
2023-03-19T15:51:53.327Z,101363.75
2023-03-19T15:54:56.997Z,101361.09
2023-03-19T15:58:07.810Z,101361.16
2023-03-19T16:01:13.940Z,101363.84
2023-03-19T16:04:20.975Z,101363.84
2023-03-19T16:07:26.144Z,101370.13
2023-03-19T16:10:38.771Z,101370.13
2023-03-19T16:13:47.668Z,101370.94
2023-03-19T16:16:53.109Z,101374.50
2023-03-19T16:20:01.555Z,101373.59
2023-03-19T16:23:04.551Z,101376.25
2023-03-19T16:26:16.900Z,101382.38
2023-03-19T16:29:23.744Z,101385.06
2023-03-19T16:32:29.883Z,101391.28
2023-03-19T16:35:34.474Z,101394.91
2023-03-19T16:38:44.227Z,101402.00
2023-03-19T16:42:15.303Z,101397.56
2023-03-19T16:45:26.221Z,101397.56
2023-03-19T16:48:30.332Z,101397.56
2023-03-19T16:51:33.601Z,101388.63
2023-03-19T16:54:36.417Z,101401.03
2023-03-19T16:57:39.219Z,101390.38
2023-03-19T17:00:43.192Z,101392.09
2023-03-19T17:03:48.833Z,101400.00
2023-03-19T17:06:51.780Z,101396.50
2023-03-19T17:09:54.559Z,101400.88
2023-03-19T17:12:58.326Z,101400.88
2023-03-19T17:16:04.419Z,101397.31
2023-03-19T17:19:17.267Z,101399.97
2023-03-19T17:22:20.193Z,101397.31
2023-03-19T17:25:25.812Z,101403.50
2023-03-19T17:28:28.710Z,101396.44
2023-03-19T17:31:33.606Z,101400.88
2023-03-19T17:34:38.712Z,101399.16
2023-03-19T17:37:41.673Z,101400.88
2023-03-19T17:40:44.925Z,101406.22
2023-03-19T17:43:49.453Z,101408.88
2023-03-19T17:46:55.272Z,101414.22
2023-03-19T17:50:00.020Z,101419.53
2023-03-19T17:53:03.330Z,101425.81
2023-03-19T17:56:07.050Z,101418.66
2023-03-19T17:59:10.183Z,101420.50
2023-03-19T18:02:24.768Z,101415.97
2023-03-19T18:05:28.971Z,101416.00
2023-03-19T18:08:31.778Z,101422.19
2023-03-19T18:11:34.755Z,101427.53
2023-03-19T18:14:37.676Z,101430.16
2023-03-19T18:17:42.633Z,101423.09
2023-03-19T18:20:47.662Z,101430.16
2023-03-19T18:23:50.519Z,101436.34
2023-03-19T18:26:53.541Z,101431.88
2023-03-19T18:29:56.371Z,101435.41
2023-03-19T18:33:01.734Z,101432.75
2023-03-19T18:36:06.720Z,101430.97
2023-03-19T18:39:13.143Z,101438.09
2023-03-19T18:42:15.996Z,101431.88
2023-03-19T18:45:19.960Z,101432.81
2023-03-19T18:48:25.714Z,101436.50
2023-03-19T18:51:30.210Z,101435.78
2023-03-19T18:54:33.568Z,101440.31
2023-03-19T18:57:37.726Z,101440.31
2023-03-19T19:00:40.586Z,101438.63
2023-03-19T19:03:46.078Z,101438.69
2023-03-19T19:06:50.417Z,101430.78
2023-03-19T19:09:53.594Z,101441.34
2023-03-19T19:12:57.396Z,101444.81
2023-03-19T19:16:01.558Z,101442.06
2023-03-19T19:19:05.053Z,101438.44
2023-03-19T19:22:14.220Z,101446.38
2023-03-19T19:25:18.500Z,101448.13
2023-03-19T19:28:26.667Z,101447.19
2023-03-19T19:31:32.523Z,101455.13
2023-03-19T19:34:35.478Z,101459.50
2023-03-19T19:37:39.714Z,101461.25
2023-03-19T19:40:44.109Z,101453.19
2023-03-19T19:43:47.911Z,101460.28
2023-03-19T19:46:53.221Z,101463.78
2023-03-19T19:49:56.579Z,101460.22
2023-03-19T19:53:00.756Z,101466.34
2023-03-19T19:56:16.097Z,101467.16
2023-03-19T19:59:19.403Z,101468.94
2023-03-19T20:02:24.388Z,101475.16
2023-03-19T20:05:29.302Z,101469.81
2023-03-19T20:08:33.437Z,101467.16
2023-03-19T20:11:36.341Z,101476.03
2023-03-19T20:14:39.297Z,101467.16
2023-03-19T20:17:42.207Z,101470.69
2023-03-19T20:20:45.432Z,101468.03
2023-03-19T20:23:52.908Z,101460.91
2023-03-19T20:26:56.135Z,101462.69
2023-03-19T20:29:59.111Z,101466.25
2023-03-19T20:33:02.550Z,101468.84
2023-03-19T20:36:06.445Z,101466.16
2023-03-19T20:39:10.830Z,101464.38
2023-03-19T20:42:15.574Z,101469.72
2023-03-19T20:45:21.525Z,101469.72
2023-03-19T20:48:25.016Z,101473.28
2023-03-19T20:51:31.557Z,101472.41
2023-03-19T20:54:35.785Z,101478.69
2023-03-19T20:57:38.579Z,101471.56
2023-03-19T21:00:41.943Z,101481.34
2023-03-19T21:03:44.901Z,101464.47
2023-03-19T21:06:53.300Z,101466.25
2023-03-19T21:09:59.145Z,101476.91
2023-03-19T21:13:02.950Z,101471.56
2023-03-19T21:16:06.956Z,101476.81
2023-03-19T21:19:10.320Z,101475.94
2023-03-19T21:22:17.653Z,101472.38
2023-03-19T21:25:25.583Z,101476.75
2023-03-19T21:28:32.793Z,101467.97
2023-03-19T21:31:36.064Z,101475.03
2023-03-19T21:34:38.916Z,101467.09
2023-03-19T21:37:42.672Z,101473.28
2023-03-19T21:40:47.639Z,101467.97
2023-03-19T21:43:54.485Z,101467.97
2023-03-19T21:46:57.373Z,101473.28
2023-03-19T21:50:00.338Z,101462.63
2023-03-19T21:53:03.265Z,101464.38
2023-03-19T21:56:16.260Z,101467.97
2023-03-19T21:59:22.723Z,101467.97
2023-03-19T22:02:41.503Z,101472.38
2023-03-19T22:05:44.589Z,101466.09
2023-03-19T22:08:48.587Z,101469.72
2023-03-19T22:11:52.748Z,101465.28
2023-03-19T22:14:55.869Z,101464.41
2023-03-19T22:17:59.840Z,101469.75
2023-03-19T22:21:02.682Z,101468.91
2023-03-19T22:24:05.891Z,101473.28
2023-03-19T22:27:16.752Z,101469.75
2023-03-19T22:30:23.642Z,101470.69
2023-03-19T22:33:27.971Z,101462.72
2023-03-19T22:36:30.881Z,101468.91
2023-03-19T22:39:33.708Z,101470.63
2023-03-19T22:42:38.785Z,101475.03
2023-03-19T22:45:41.680Z,101472.38
2023-03-19T22:48:47.959Z,101474.09
2023-03-19T22:51:51.338Z,101467.03
2023-03-19T22:54:54.208Z,101469.72
2023-03-19T22:57:58.388Z,101462.63
2023-03-19T23:01:01.511Z,101451.97
2023-03-19T23:04:18.668Z,101464.38
2023-03-19T23:07:21.506Z,101463.50
2023-03-19T23:10:26.838Z,101460.03
2023-03-19T23:13:31.292Z,101455.56
2023-03-19T23:16:34.212Z,101455.56
2023-03-19T23:19:38.343Z,101456.50
2023-03-19T23:22:41.390Z,101456.41
2023-03-19T23:25:46.030Z,101459.09
2023-03-19T23:28:50.650Z,101470.63
2023-03-19T23:31:53.749Z,101473.28
2023-03-19T23:35:01.208Z,101471.50
2023-03-19T23:38:05.681Z,101467.97
2023-03-19T23:41:08.896Z,101466.25
2023-03-19T23:44:16.702Z,101471.56
2023-03-19T23:47:19.990Z,101465.38
2023-03-19T23:50:22.974Z,101467.16
2023-03-19T23:53:28.222Z,101460.03
2023-03-19T23:56:32.577Z,101456.50
2023-03-19T23:59:39.240Z,101466.25
